sensor_id;sensor_type;location;lat;lon;timestamp;temperature;humidity
82388;DHT22;72027;47.420;9.310;2023-08-06T00:00:59;22.60;98.70
82388;DHT22;72027;47.420;9.310;2023-08-06T00:03:26;22.60;98.70
82388;DHT22;72027;47.420;9.310;2023-08-06T00:05:52;22.60;98.70
82388;DHT22;72027;47.420;9.310;2023-08-06T00:08:19;22.60;98.70
82388;DHT22;72027;47.420;9.310;2023-08-06T00:10:47;22.60;98.70
82388;DHT22;72027;47.420;9.310;2023-08-06T00:13:15;22.60;98.70
82388;DHT22;72027;47.420;9.310;2023-08-06T00:15:41;22.60;98.70
82388;DHT22;72027;47.420;9.310;2023-08-06T00:18:08;22.60;98.70
82388;DHT22;72027;47.420;9.310;2023-08-06T00:20:35;22.50;98.70
82388;DHT22;72027;47.420;9.310;2023-08-06T00:23:01;22.50;98.70
82388;DHT22;72027;47.420;9.310;2023-08-06T00:25:28;22.50;98.70
82388;DHT22;72027;47.420;9.310;2023-08-06T00:27:55;22.50;98.80
82388;DHT22;72027;47.420;9.310;2023-08-06T00:30:23;22.50;98.70
82388;DHT22;72027;47.420;9.310;2023-08-06T00:32:49;22.50;98.80
82388;DHT22;72027;47.420;9.310;2023-08-06T00:35:16;22.50;98.70
82388;DHT22;72027;47.420;9.310;2023-08-06T00:37:43;22.50;98.80
82388;DHT22;72027;47.420;9.310;2023-08-06T00:40:10;22.50;98.70
82388;DHT22;72027;47.420;9.310;2023-08-06T00:42:36;22.50;98.80
82388;DHT22;72027;47.420;9.310;2023-08-06T00:45:03;22.50;98.70
82388;DHT22;72027;47.420;9.310;2023-08-06T00:47:31;22.50;98.70
82388;DHT22;72027;47.420;9.310;2023-08-06T00:49:57;22.50;98.70
82388;DHT22;72027;47.420;9.310;2023-08-06T00:52:24;22.50;98.70
82388;DHT22;72027;47.420;9.310;2023-08-06T00:54:51;22.50;98.70
82388;DHT22;72027;47.420;9.310;2023-08-06T00:57:18;22.40;98.70
82388;DHT22;72027;47.420;9.310;2023-08-06T00:59:46;22.50;98.70
82388;DHT22;72027;47.420;9.310;2023-08-06T01:02:13;22.50;98.80
82388;DHT22;72027;47.420;9.310;2023-08-06T01:04:40;22.50;98.80
82388;DHT22;72027;47.420;9.310;2023-08-06T01:13:02;22.50;98.80
82388;DHT22;72027;47.420;9.310;2023-08-06T01:15:37;22.50;98.80
82388;DHT22;72027;47.420;9.310;2023-08-06T01:18:06;22.50;98.80
82388;DHT22;72027;47.420;9.310;2023-08-06T01:20:33;22.50;98.70
82388;DHT22;72027;47.420;9.310;2023-08-06T01:23:00;22.40;98.70
82388;DHT22;72027;47.420;9.310;2023-08-06T01:25:39;22.50;98.80
82388;DHT22;72027;47.420;9.310;2023-08-06T01:28:16;22.40;98.70
82388;DHT22;72027;47.420;9.310;2023-08-06T01:30:46;22.40;98.70
82388;DHT22;72027;47.420;9.310;2023-08-06T01:33:16;22.40;98.70
82388;DHT22;72027;47.420;9.310;2023-08-06T01:35:47;22.40;98.70
82388;DHT22;72027;47.420;9.310;2023-08-06T01:38:15;22.40;98.70
82388;DHT22;72027;47.420;9.310;2023-08-06T01:40:41;22.40;98.70
82388;DHT22;72027;47.420;9.310;2023-08-06T01:43:08;22.40;98.70
82388;DHT22;72027;47.420;9.310;2023-08-06T01:45:35;22.40;98.80
82388;DHT22;72027;47.420;9.310;2023-08-06T01:48:02;22.40;98.70
82388;DHT22;72027;47.420;9.310;2023-08-06T01:50:28;22.40;98.70
82388;DHT22;72027;47.420;9.310;2023-08-06T01:52:55;22.40;98.70
82388;DHT22;72027;47.420;9.310;2023-08-06T01:55:22;22.40;98.70
82388;DHT22;72027;47.420;9.310;2023-08-06T01:57:49;22.40;98.70
82388;DHT22;72027;47.420;9.310;2023-08-06T02:00:15;22.40;98.70
82388;DHT22;72027;47.420;9.310;2023-08-06T02:02:42;22.40;98.70
82388;DHT22;72027;47.420;9.310;2023-08-06T02:05:09;22.40;98.70
82388;DHT22;72027;47.420;9.310;2023-08-06T02:07:36;22.40;98.70
82388;DHT22;72027;47.420;9.310;2023-08-06T02:10:02;22.40;98.60
82388;DHT22;72027;47.420;9.310;2023-08-06T02:12:29;22.40;98.70
82388;DHT22;72027;47.420;9.310;2023-08-06T02:14:56;22.30;98.60
82388;DHT22;72027;47.420;9.310;2023-08-06T02:17:22;22.40;98.60
82388;DHT22;72027;47.420;9.310;2023-08-06T02:19:49;22.40;98.60
82388;DHT22;72027;47.420;9.310;2023-08-06T02:22:16;22.40;98.60
82388;DHT22;72027;47.420;9.310;2023-08-06T02:24:43;22.30;98.60
82388;DHT22;72027;47.420;9.310;2023-08-06T02:27:09;22.30;98.60
82388;DHT22;72027;47.420;9.310;2023-08-06T02:29:36;22.30;98.60
82388;DHT22;72027;47.420;9.310;2023-08-06T02:32:03;22.30;98.60
82388;DHT22;72027;47.420;9.310;2023-08-06T02:34:30;22.30;98.60
82388;DHT22;72027;47.420;9.310;2023-08-06T02:36:57;22.30;98.60
82388;DHT22;72027;47.420;9.310;2023-08-06T02:39:23;22.30;98.60
82388;DHT22;72027;47.420;9.310;2023-08-06T02:41:50;22.30;98.60
82388;DHT22;72027;47.420;9.310;2023-08-06T02:44:17;22.30;98.60
82388;DHT22;72027;47.420;9.310;2023-08-06T02:46:45;22.30;98.60
82388;DHT22;72027;47.420;9.310;2023-08-06T02:49:11;22.30;98.60
82388;DHT22;72027;47.420;9.310;2023-08-06T02:51:38;22.30;98.60
82388;DHT22;72027;47.420;9.310;2023-08-06T02:54:05;22.30;98.60
82388;DHT22;72027;47.420;9.310;2023-08-06T02:56:31;22.30;98.60
82388;DHT22;72027;47.420;9.310;2023-08-06T02:58:58;22.30;98.60
82388;DHT22;72027;47.420;9.310;2023-08-06T03:01:26;22.30;98.60
82388;DHT22;72027;47.420;9.310;2023-08-06T03:03:55;22.30;98.60
82388;DHT22;72027;47.420;9.310;2023-08-06T03:06:21;22.30;98.60
82388;DHT22;72027;47.420;9.310;2023-08-06T03:08:48;22.30;98.60
82388;DHT22;72027;47.420;9.310;2023-08-06T03:11:15;22.30;98.60
82388;DHT22;72027;47.420;9.310;2023-08-06T03:13:41;22.30;98.60
82388;DHT22;72027;47.420;9.310;2023-08-06T03:16:08;22.30;98.60
82388;DHT22;72027;47.420;9.310;2023-08-06T03:18:35;22.30;98.60
82388;DHT22;72027;47.420;9.310;2023-08-06T03:21:02;22.30;98.60
82388;DHT22;72027;47.420;9.310;2023-08-06T03:23:28;22.30;98.60
82388;DHT22;72027;47.420;9.310;2023-08-06T03:25:55;22.30;98.60
82388;DHT22;72027;47.420;9.310;2023-08-06T03:28:22;22.30;98.60
82388;DHT22;72027;47.420;9.310;2023-08-06T03:30:59;22.30;98.50
82388;DHT22;72027;47.420;9.310;2023-08-06T03:33:25;22.30;98.50
82388;DHT22;72027;47.420;9.310;2023-08-06T03:35:52;22.20;98.50
82388;DHT22;72027;47.420;9.310;2023-08-06T03:38:19;22.20;98.50
82388;DHT22;72027;47.420;9.310;2023-08-06T03:40:46;22.30;98.50
82388;DHT22;72027;47.420;9.310;2023-08-06T03:43:13;22.30;98.50
82388;DHT22;72027;47.420;9.310;2023-08-06T03:45:40;22.20;98.50
82388;DHT22;72027;47.420;9.310;2023-08-06T03:48:08;22.20;98.50
82388;DHT22;72027;47.420;9.310;2023-08-06T03:50:35;22.30;98.50
82388;DHT22;72027;47.420;9.310;2023-08-06T03:53:01;22.20;98.50
82388;DHT22;72027;47.420;9.310;2023-08-06T03:55:28;22.20;98.50
82388;DHT22;72027;47.420;9.310;2023-08-06T03:57:55;22.20;98.50
82388;DHT22;72027;47.420;9.310;2023-08-06T04:00:22;22.20;98.50
82388;DHT22;72027;47.420;9.310;2023-08-06T04:02:49;22.20;98.50
82388;DHT22;72027;47.420;9.310;2023-08-06T04:05:16;22.20;98.50
82388;DHT22;72027;47.420;9.310;2023-08-06T04:07:43;22.20;98.50
82388;DHT22;72027;47.420;9.310;2023-08-06T04:10:10;22.20;98.50
82388;DHT22;72027;47.420;9.310;2023-08-06T04:12:37;22.20;98.50
82388;DHT22;72027;47.420;9.310;2023-08-06T04:15:06;22.20;98.50
82388;DHT22;72027;47.420;9.310;2023-08-06T04:17:33;22.20;98.50
82388;DHT22;72027;47.420;9.310;2023-08-06T04:20:00;22.20;98.50
82388;DHT22;72027;47.420;9.310;2023-08-06T04:22:27;22.20;98.50
82388;DHT22;72027;47.420;9.310;2023-08-06T04:24:54;22.20;98.50
82388;DHT22;72027;47.420;9.310;2023-08-06T04:27:20;22.20;98.40
82388;DHT22;72027;47.420;9.310;2023-08-06T04:29:47;22.20;98.40
82388;DHT22;72027;47.420;9.310;2023-08-06T04:32:14;22.20;98.50
82388;DHT22;72027;47.420;9.310;2023-08-06T04:34:41;22.20;98.50
82388;DHT22;72027;47.420;9.310;2023-08-06T04:37:07;22.20;98.50
82388;DHT22;72027;47.420;9.310;2023-08-06T04:39:34;22.20;98.50
82388;DHT22;72027;47.420;9.310;2023-08-06T04:42:01;22.20;98.60
82388;DHT22;72027;47.420;9.310;2023-08-06T04:44:28;22.20;98.60
82388;DHT22;72027;47.420;9.310;2023-08-06T04:46:54;22.20;98.60
82388;DHT22;72027;47.420;9.310;2023-08-06T04:49:21;22.20;98.60
82388;DHT22;72027;47.420;9.310;2023-08-06T04:51:48;22.20;98.70
82388;DHT22;72027;47.420;9.310;2023-08-06T04:54:15;22.20;98.60
82388;DHT22;72027;47.420;9.310;2023-08-06T04:56:41;22.20;98.60
82388;DHT22;72027;47.420;9.310;2023-08-06T04:59:08;22.10;98.60
82388;DHT22;72027;47.420;9.310;2023-08-06T05:01:35;22.10;98.60
82388;DHT22;72027;47.420;9.310;2023-08-06T05:04:02;22.20;98.60
82388;DHT22;72027;47.420;9.310;2023-08-06T05:06:29;22.20;98.60
82388;DHT22;72027;47.420;9.310;2023-08-06T05:08:55;22.20;98.60
82388;DHT22;72027;47.420;9.310;2023-08-06T05:11:22;22.20;98.60
82388;DHT22;72027;47.420;9.310;2023-08-06T05:13:50;22.10;98.60
82388;DHT22;72027;47.420;9.310;2023-08-06T05:16:17;22.10;98.60
82388;DHT22;72027;47.420;9.310;2023-08-06T05:18:44;22.10;98.60
82388;DHT22;72027;47.420;9.310;2023-08-06T05:21:10;22.20;98.60
82388;DHT22;72027;47.420;9.310;2023-08-06T05:23:37;22.10;98.60
82388;DHT22;72027;47.420;9.310;2023-08-06T05:26:04;22.10;98.60
82388;DHT22;72027;47.420;9.310;2023-08-06T05:28:31;22.10;98.60
82388;DHT22;72027;47.420;9.310;2023-08-06T05:30:57;22.10;98.60
82388;DHT22;72027;47.420;9.310;2023-08-06T05:33:24;22.10;98.50
82388;DHT22;72027;47.420;9.310;2023-08-06T05:35:51;22.10;98.50
82388;DHT22;72027;47.420;9.310;2023-08-06T05:38:17;22.10;98.50
82388;DHT22;72027;47.420;9.310;2023-08-06T05:40:44;22.10;98.50
82388;DHT22;72027;47.420;9.310;2023-08-06T05:43:11;22.10;98.50
82388;DHT22;72027;47.420;9.310;2023-08-06T05:45:38;22.10;98.50
82388;DHT22;72027;47.420;9.310;2023-08-06T05:48:05;22.10;98.50
82388;DHT22;72027;47.420;9.310;2023-08-06T05:50:31;22.10;98.40
82388;DHT22;72027;47.420;9.310;2023-08-06T05:52:58;22.10;98.40
82388;DHT22;72027;47.420;9.310;2023-08-06T05:55:27;22.10;98.40
82388;DHT22;72027;47.420;9.310;2023-08-06T05:57:54;22.10;98.40
82388;DHT22;72027;47.420;9.310;2023-08-06T06:00:21;22.10;98.40
82388;DHT22;72027;47.420;9.310;2023-08-06T06:02:48;22.10;98.40
82388;DHT22;72027;47.420;9.310;2023-08-06T06:05:15;22.10;98.30
82388;DHT22;72027;47.420;9.310;2023-08-06T06:07:42;22.10;98.40
82388;DHT22;72027;47.420;9.310;2023-08-06T06:10:09;22.10;98.40
82388;DHT22;72027;47.420;9.310;2023-08-06T06:12:37;22.10;98.50
82388;DHT22;72027;47.420;9.310;2023-08-06T06:15:04;22.10;98.40
82388;DHT22;72027;47.420;9.310;2023-08-06T06:17:32;22.10;98.50
82388;DHT22;72027;47.420;9.310;2023-08-06T06:19:58;21.60;80.20
82388;DHT22;72027;47.420;9.310;2023-08-06T06:22:25;21.10;82.10
82388;DHT22;72027;47.420;9.310;2023-08-06T06:24:52;20.70;82.20
82388;DHT22;72027;47.420;9.310;2023-08-06T06:27:19;20.70;85.00
82388;DHT22;72027;47.420;9.310;2023-08-06T06:29:45;20.40;84.00
82388;DHT22;72027;47.420;9.310;2023-08-06T06:32:12;20.30;87.90
82388;DHT22;72027;47.420;9.310;2023-08-06T06:34:39;20.70;92.50
82388;DHT22;72027;47.420;9.310;2023-08-06T06:37:06;21.00;86.60
82388;DHT22;72027;47.420;9.310;2023-08-06T06:39:33;21.10;81.60
82388;DHT22;72027;47.420;9.310;2023-08-06T06:42:00;21.20;81.50
82388;DHT22;72027;47.420;9.310;2023-08-06T06:44:26;21.30;80.90
82388;DHT22;72027;47.420;9.310;2023-08-06T06:46:53;21.40;81.90
82388;DHT22;72027;47.420;9.310;2023-08-06T06:49:19;21.40;81.20
82388;DHT22;72027;47.420;9.310;2023-08-06T06:51:46;21.40;84.30
82388;DHT22;72027;47.420;9.310;2023-08-06T06:54:13;21.30;78.40
82388;DHT22;72027;47.420;9.310;2023-08-06T06:56:41;21.40;79.50
82388;DHT22;72027;47.420;9.310;2023-08-06T06:59:08;21.40;79.00
82388;DHT22;72027;47.420;9.310;2023-08-06T07:01:35;21.20;78.10
82388;DHT22;72027;47.420;9.310;2023-08-06T07:04:01;20.90;77.00
82388;DHT22;72027;47.420;9.310;2023-08-06T07:06:31;21.00;78.00
82388;DHT22;72027;47.420;9.310;2023-08-06T07:08:58;21.00;77.70
82388;DHT22;72027;47.420;9.310;2023-08-06T07:11:25;21.00;78.50
82388;DHT22;72027;47.420;9.310;2023-08-06T07:14:00;21.00;79.30
82388;DHT22;72027;47.420;9.310;2023-08-06T07:16:28;21.10;80.90
82388;DHT22;72027;47.420;9.310;2023-08-06T07:18:56;21.20;79.70
82388;DHT22;72027;47.420;9.310;2023-08-06T07:21:22;21.20;80.30
82388;DHT22;72027;47.420;9.310;2023-08-06T07:23:49;21.10;78.80
82388;DHT22;72027;47.420;9.310;2023-08-06T07:26:17;21.20;79.20
82388;DHT22;72027;47.420;9.310;2023-08-06T07:28:43;21.10;81.10
82388;DHT22;72027;47.420;9.310;2023-08-06T07:31:11;21.20;79.90
82388;DHT22;72027;47.420;9.310;2023-08-06T07:33:38;21.30;81.20
82388;DHT22;72027;47.420;9.310;2023-08-06T07:36:12;21.10;78.90
82388;DHT22;72027;47.420;9.310;2023-08-06T07:38:40;21.10;79.50
82388;DHT22;72027;47.420;9.310;2023-08-06T07:41:08;21.10;78.90
82388;DHT22;72027;47.420;9.310;2023-08-06T07:43:35;21.10;80.70
82388;DHT22;72027;47.420;9.310;2023-08-06T07:46:05;20.90;77.60
82388;DHT22;72027;47.420;9.310;2023-08-06T07:48:32;20.90;79.30
82388;DHT22;72027;47.420;9.310;2023-08-06T07:50:59;20.90;79.30
82388;DHT22;72027;47.420;9.310;2023-08-06T07:53:26;20.90;81.20
82388;DHT22;72027;47.420;9.310;2023-08-06T07:55:56;21.00;85.80
82388;DHT22;72027;47.420;9.310;2023-08-06T07:58:24;21.20;90.90
82388;DHT22;72027;47.420;9.310;2023-08-06T08:00:51;21.20;91.10
82388;DHT22;72027;47.420;9.310;2023-08-06T08:03:18;21.30;92.00
82388;DHT22;72027;47.420;9.310;2023-08-06T08:05:46;21.30;93.10
82388;DHT22;72027;47.420;9.310;2023-08-06T08:08:13;21.40;93.70
82388;DHT22;72027;47.420;9.310;2023-08-06T08:10:40;21.40;93.40
82388;DHT22;72027;47.420;9.310;2023-08-06T08:13:07;21.50;94.80
82388;DHT22;72027;47.420;9.310;2023-08-06T08:15:34;21.50;94.60
82388;DHT22;72027;47.420;9.310;2023-08-06T08:18:01;21.50;95.10
82388;DHT22;72027;47.420;9.310;2023-08-06T08:20:27;21.50;94.90
82388;DHT22;72027;47.420;9.310;2023-08-06T08:22:59;21.50;95.90
82388;DHT22;72027;47.420;9.310;2023-08-06T08:25:27;21.60;95.30
82388;DHT22;72027;47.420;9.310;2023-08-06T08:27:57;21.60;95.70
82388;DHT22;72027;47.420;9.310;2023-08-06T08:30:24;21.60;95.90
82388;DHT22;72027;47.420;9.310;2023-08-06T08:32:52;21.60;96.00
82388;DHT22;72027;47.420;9.310;2023-08-06T08:35:19;21.70;94.70
82388;DHT22;72027;47.420;9.310;2023-08-06T08:37:45;21.60;94.90
82388;DHT22;72027;47.420;9.310;2023-08-06T08:40:14;21.70;95.10
82388;DHT22;72027;47.420;9.310;2023-08-06T08:42:42;21.80;95.20
82388;DHT22;72027;47.420;9.310;2023-08-06T08:45:13;21.80;95.10
82388;DHT22;72027;47.420;9.310;2023-08-06T08:47:44;21.80;95.20
82388;DHT22;72027;47.420;9.310;2023-08-06T08:50:11;21.80;95.30
82388;DHT22;72027;47.420;9.310;2023-08-06T08:52:39;21.90;95.60
82388;DHT22;72027;47.420;9.310;2023-08-06T08:55:07;21.90;95.60
82388;DHT22;72027;47.420;9.310;2023-08-06T08:57:34;21.90;95.90
82388;DHT22;72027;47.420;9.310;2023-08-06T09:00:02;22.00;95.80
82388;DHT22;72027;47.420;9.310;2023-08-06T09:02:30;22.00;95.60
82388;DHT22;72027;47.420;9.310;2023-08-06T09:05:01;22.00;95.30
82388;DHT22;72027;47.420;9.310;2023-08-06T09:07:38;22.00;95.10
82388;DHT22;72027;47.420;9.310;2023-08-06T09:10:09;22.00;95.00
82388;DHT22;72027;47.420;9.310;2023-08-06T09:12:37;22.00;94.60
82388;DHT22;72027;47.420;9.310;2023-08-06T09:15:04;22.00;94.50
82388;DHT22;72027;47.420;9.310;2023-08-06T09:17:31;21.90;81.40
82388;DHT22;72027;47.420;9.310;2023-08-06T09:19:58;21.60;78.00
82388;DHT22;72027;47.420;9.310;2023-08-06T09:22:34;21.30;75.30
82388;DHT22;72027;47.420;9.310;2023-08-06T09:25:01;21.10;75.60
82388;DHT22;72027;47.420;9.310;2023-08-06T09:27:30;21.10;75.90
82388;DHT22;72027;47.420;9.310;2023-08-06T09:29:57;21.00;73.90
82388;DHT22;72027;47.420;9.310;2023-08-06T09:32:24;21.00;74.30
82388;DHT22;72027;47.420;9.310;2023-08-06T09:34:56;21.10;80.10
82388;DHT22;72027;47.420;9.310;2023-08-06T09:37:23;21.20;80.00
82388;DHT22;72027;47.420;9.310;2023-08-06T09:39:49;21.30;79.50
82388;DHT22;72027;47.420;9.310;2023-08-06T09:42:18;21.40;79.30
82388;DHT22;72027;47.420;9.310;2023-08-06T09:44:44;21.40;79.20
82388;DHT22;72027;47.420;9.310;2023-08-06T09:47:11;21.50;79.40
82388;DHT22;72027;47.420;9.310;2023-08-06T09:49:42;21.50;79.30
82388;DHT22;72027;47.420;9.310;2023-08-06T09:52:13;21.50;79.30
82388;DHT22;72027;47.420;9.310;2023-08-06T09:54:40;21.50;79.50
82388;DHT22;72027;47.420;9.310;2023-08-06T09:57:07;21.50;79.60
82388;DHT22;72027;47.420;9.310;2023-08-06T09:59:35;21.50;79.70
82388;DHT22;72027;47.420;9.310;2023-08-06T10:02:13;21.50;80.00
82388;DHT22;72027;47.420;9.310;2023-08-06T10:04:42;21.50;80.20
82388;DHT22;72027;47.420;9.310;2023-08-06T10:07:11;21.60;80.60
82388;DHT22;72027;47.420;9.310;2023-08-06T10:09:37;21.50;80.90
82388;DHT22;72027;47.420;9.310;2023-08-06T10:12:05;21.50;81.00
82388;DHT22;72027;47.420;9.310;2023-08-06T10:14:34;21.60;81.50
82388;DHT22;72027;47.420;9.310;2023-08-06T10:17:02;21.60;81.70
82388;DHT22;72027;47.420;9.310;2023-08-06T10:19:29;21.50;82.00
82388;DHT22;72027;47.420;9.310;2023-08-06T10:22:14;21.60;82.40
82388;DHT22;72027;47.420;9.310;2023-08-06T10:24:57;21.50;82.50
82388;DHT22;72027;47.420;9.310;2023-08-06T10:27:36;21.60;82.90
82388;DHT22;72027;47.420;9.310;2023-08-06T10:30:25;21.60;83.10
82388;DHT22;72027;47.420;9.310;2023-08-06T10:32:54;21.60;83.50
82388;DHT22;72027;47.420;9.310;2023-08-06T10:35:44;21.50;84.70
82388;DHT22;72027;47.420;9.310;2023-08-06T10:40:40;21.50;93.20
82388;DHT22;72027;47.420;9.310;2023-08-06T10:43:07;21.50;93.90
82388;DHT22;72027;47.420;9.310;2023-08-06T10:45:36;21.50;94.80
82388;DHT22;72027;47.420;9.310;2023-08-06T10:48:04;21.50;95.10
82388;DHT22;72027;47.420;9.310;2023-08-06T10:50:32;21.50;95.60
82388;DHT22;72027;47.420;9.310;2023-08-06T10:53:04;21.50;95.90
82388;DHT22;72027;47.420;9.310;2023-08-06T10:55:31;21.50;96.40
82388;DHT22;72027;47.420;9.310;2023-08-06T10:57:58;21.50;96.70
82388;DHT22;72027;47.420;9.310;2023-08-06T11:00:25;21.60;97.00
82388;DHT22;72027;47.420;9.310;2023-08-06T11:02:53;21.60;97.30
82388;DHT22;72027;47.420;9.310;2023-08-06T11:05:20;21.60;97.10
82388;DHT22;72027;47.420;9.310;2023-08-06T11:07:48;21.70;96.90
82388;DHT22;72027;47.420;9.310;2023-08-06T11:10:16;21.50;84.00
82388;DHT22;72027;47.420;9.310;2023-08-06T11:12:42;21.20;81.70
82388;DHT22;72027;47.420;9.310;2023-08-06T11:15:10;20.90;82.00
82388;DHT22;72027;47.420;9.310;2023-08-06T11:17:40;21.00;84.20
82388;DHT22;72027;47.420;9.310;2023-08-06T11:20:07;21.10;84.00
82388;DHT22;72027;47.420;9.310;2023-08-06T11:22:36;21.30;83.40
82388;DHT22;72027;47.420;9.310;2023-08-06T11:25:02;21.40;83.10
82388;DHT22;72027;47.420;9.310;2023-08-06T11:27:29;21.40;82.80
82388;DHT22;72027;47.420;9.310;2023-08-06T11:29:56;21.50;83.00
82388;DHT22;72027;47.420;9.310;2023-08-06T11:32:23;21.50;82.80
82388;DHT22;72027;47.420;9.310;2023-08-06T11:34:50;21.50;82.90
82388;DHT22;72027;47.420;9.310;2023-08-06T11:37:21;21.50;83.00
82388;DHT22;72027;47.420;9.310;2023-08-06T11:39:49;21.60;83.30
82388;DHT22;72027;47.420;9.310;2023-08-06T11:42:16;21.50;83.20
82388;DHT22;72027;47.420;9.310;2023-08-06T11:44:43;21.50;89.90
82388;DHT22;72027;47.420;9.310;2023-08-06T11:47:15;21.50;90.10
82388;DHT22;72027;47.420;9.310;2023-08-06T11:49:45;21.50;91.50
82388;DHT22;72027;47.420;9.310;2023-08-06T11:52:18;21.50;92.20
82388;DHT22;72027;47.420;9.310;2023-08-06T11:57:34;21.50;92.90
82388;DHT22;72027;47.420;9.310;2023-08-06T12:00:23;21.50;93.30
82388;DHT22;72027;47.420;9.310;2023-08-06T12:02:51;21.60;94.00
82388;DHT22;72027;47.420;9.310;2023-08-06T12:05:21;21.60;94.30
82388;DHT22;72027;47.420;9.310;2023-08-06T12:07:52;21.60;94.70
82388;DHT22;72027;47.420;9.310;2023-08-06T12:10:19;21.60;94.80
82388;DHT22;72027;47.420;9.310;2023-08-06T12:12:47;21.60;95.20
82388;DHT22;72027;47.420;9.310;2023-08-06T12:15:14;21.60;95.40
82388;DHT22;72027;47.420;9.310;2023-08-06T12:17:41;21.60;95.70
82388;DHT22;72027;47.420;9.310;2023-08-06T12:20:09;21.60;95.80
82388;DHT22;72027;47.420;9.310;2023-08-06T12:22:37;21.70;96.10
82388;DHT22;72027;47.420;9.310;2023-08-06T12:25:07;21.70;96.10
82388;DHT22;72027;47.420;9.310;2023-08-06T12:27:35;21.70;96.30
82388;DHT22;72027;47.420;9.310;2023-08-06T12:30:03;21.70;96.30
82388;DHT22;72027;47.420;9.310;2023-08-06T12:32:30;21.80;96.40
82388;DHT22;72027;47.420;9.310;2023-08-06T12:34:57;21.70;96.60
82388;DHT22;72027;47.420;9.310;2023-08-06T12:37:25;21.80;97.00
82388;DHT22;72027;47.420;9.310;2023-08-06T12:39:52;21.80;96.90
82388;DHT22;72027;47.420;9.310;2023-08-06T12:42:18;21.80;96.80
82388;DHT22;72027;47.420;9.310;2023-08-06T12:44:46;21.80;96.80
82388;DHT22;72027;47.420;9.310;2023-08-06T12:47:14;21.80;96.90
82388;DHT22;72027;47.420;9.310;2023-08-06T12:49:40;21.90;97.40
82388;DHT22;72027;47.420;9.310;2023-08-06T12:52:07;21.90;96.90
82388;DHT22;72027;47.420;9.310;2023-08-06T12:54:36;21.90;96.90
82388;DHT22;72027;47.420;9.310;2023-08-06T12:57:05;21.90;96.90
82388;DHT22;72027;47.420;9.310;2023-08-06T12:59:32;21.90;97.20
82388;DHT22;72027;47.420;9.310;2023-08-06T13:02:00;21.90;97.30
82388;DHT22;72027;47.420;9.310;2023-08-06T13:04:27;21.90;97.20
82388;DHT22;72027;47.420;9.310;2023-08-06T13:06:54;22.00;97.10
82388;DHT22;72027;47.420;9.310;2023-08-06T13:09:21;22.00;97.10
82388;DHT22;72027;47.420;9.310;2023-08-06T13:11:48;22.00;97.30
82388;DHT22;72027;47.420;9.310;2023-08-06T13:14:17;22.00;97.20
82388;DHT22;72027;47.420;9.310;2023-08-06T13:16:44;22.00;97.00
82388;DHT22;72027;47.420;9.310;2023-08-06T13:19:11;22.00;97.10
82388;DHT22;72027;47.420;9.310;2023-08-06T13:24:08;22.00;97.40
82388;DHT22;72027;47.420;9.310;2023-08-06T13:26:35;22.00;97.50
82388;DHT22;72027;47.420;9.310;2023-08-06T13:29:02;22.00;97.10
82388;DHT22;72027;47.420;9.310;2023-08-06T13:31:29;22.00;97.40
82388;DHT22;72027;47.420;9.310;2023-08-06T13:33:56;22.00;97.60
82388;DHT22;72027;47.420;9.310;2023-08-06T13:36:26;22.00;98.20
82388;DHT22;72027;47.420;9.310;2023-08-06T13:38:53;22.00;98.20
82388;DHT22;72027;47.420;9.310;2023-08-06T13:41:20;21.90;98.40
82388;DHT22;72027;47.420;9.310;2023-08-06T13:43:47;21.90;98.60
82388;DHT22;72027;47.420;9.310;2023-08-06T13:46:14;21.90;99.10
82388;DHT22;72027;47.420;9.310;2023-08-06T13:48:46;21.80;99.70
82388;DHT22;72027;47.420;9.310;2023-08-06T13:51:13;21.90;99.60
82388;DHT22;72027;47.420;9.310;2023-08-06T13:53:41;21.90;99.70
82388;DHT22;72027;47.420;9.310;2023-08-06T13:56:09;21.90;99.90
82388;DHT22;72027;47.420;9.310;2023-08-06T13:58:41;21.90;99.90
82388;DHT22;72027;47.420;9.310;2023-08-06T14:01:10;22.00;99.90
82388;DHT22;72027;47.420;9.310;2023-08-06T14:03:37;22.10;99.90
82388;DHT22;72027;47.420;9.310;2023-08-06T14:06:04;22.10;99.90
82388;DHT22;72027;47.420;9.310;2023-08-06T14:08:31;22.10;99.90
82388;DHT22;72027;47.420;9.310;2023-08-06T14:10:58;22.10;99.90
82388;DHT22;72027;47.420;9.310;2023-08-06T14:13:25;22.10;99.90
82388;DHT22;72027;47.420;9.310;2023-08-06T14:15:52;22.10;99.90
82388;DHT22;72027;47.420;9.310;2023-08-06T14:18:19;22.20;99.90
82388;DHT22;72027;47.420;9.310;2023-08-06T14:20:46;22.20;99.90
82388;DHT22;72027;47.420;9.310;2023-08-06T14:23:12;22.20;99.90
82388;DHT22;72027;47.420;9.310;2023-08-06T14:25:39;22.20;99.90
82388;DHT22;72027;47.420;9.310;2023-08-06T14:28:06;22.30;99.90
82388;DHT22;72027;47.420;9.310;2023-08-06T14:30:36;22.30;99.90
82388;DHT22;72027;47.420;9.310;2023-08-06T14:33:03;22.30;99.90
82388;DHT22;72027;47.420;9.310;2023-08-06T14:35:46;22.30;99.90
82388;DHT22;72027;47.420;9.310;2023-08-06T14:38:14;22.30;99.90
82388;DHT22;72027;47.420;9.310;2023-08-06T14:40:40;22.30;99.90
82388;DHT22;72027;47.420;9.310;2023-08-06T14:43:07;22.30;99.90
82388;DHT22;72027;47.420;9.310;2023-08-06T14:45:38;22.30;99.90
82388;DHT22;72027;47.420;9.310;2023-08-06T14:48:05;22.30;99.90
82388;DHT22;72027;47.420;9.310;2023-08-06T14:50:31;22.30;99.90
82388;DHT22;72027;47.420;9.310;2023-08-06T14:52:58;22.30;99.90
82388;DHT22;72027;47.420;9.310;2023-08-06T14:55:31;22.20;99.90
82388;DHT22;72027;47.420;9.310;2023-08-06T14:58:01;22.20;99.90
82388;DHT22;72027;47.420;9.310;2023-08-06T15:00:28;22.20;99.90
82388;DHT22;72027;47.420;9.310;2023-08-06T15:02:55;22.30;99.90
82388;DHT22;72027;47.420;9.310;2023-08-06T15:05:22;22.30;99.80
82388;DHT22;72027;47.420;9.310;2023-08-06T15:07:48;22.30;99.60
82388;DHT22;72027;47.420;9.310;2023-08-06T15:10:15;22.20;99.80
82388;DHT22;72027;47.420;9.310;2023-08-06T15:12:45;22.30;99.90
82388;DHT22;72027;47.420;9.310;2023-08-06T15:15:12;22.30;99.40
82388;DHT22;72027;47.420;9.310;2023-08-06T15:17:39;22.30;99.50
82388;DHT22;72027;47.420;9.310;2023-08-06T15:20:06;22.30;99.40
82388;DHT22;72027;47.420;9.310;2023-08-06T15:22:33;22.30;99.50
82388;DHT22;72027;47.420;9.310;2023-08-06T15:25:00;22.30;99.30
82388;DHT22;72027;47.420;9.310;2023-08-06T15:27:28;22.30;99.70
82388;DHT22;72027;47.420;9.310;2023-08-06T15:29:54;22.20;99.80
82388;DHT22;72027;47.420;9.310;2023-08-06T15:32:21;22.20;99.80
82388;DHT22;72027;47.420;9.310;2023-08-06T15:34:49;22.20;99.90
82388;DHT22;72027;47.420;9.310;2023-08-06T15:37:16;22.20;99.90
82388;DHT22;72027;47.420;9.310;2023-08-06T15:39:43;22.20;99.90
82388;DHT22;72027;47.420;9.310;2023-08-06T15:42:10;22.30;99.80
82388;DHT22;72027;47.420;9.310;2023-08-06T15:44:37;22.30;99.90
82388;DHT22;72027;47.420;9.310;2023-08-06T15:47:03;22.30;99.80